Time;durP1;ratioP1;P1;durP2;ratioP2;P2;SDS_P1;SDS_P2;PMS_P1;PMS_P2;Temp;Humidity;BMP_temperature;BMP_pressure;BME280_temperature;BME280_humidity;BME280_pressure;Samples;Min_cycle;Max_cycle;Signal;HPM_P1;HPM_P2
2022/06/24 00:02:08;;;;;;;;;;;;;;;-140.72;100.00;52123.03;5118185;28;19916;-69
2022/06/24 00:04:33;;;;;;;;;;;;;;;-140.72;100.00;52147.38;5116189;28;19916;-68
2022/06/24 00:06:59;;;;;;;;;;;;;;;-140.72;100.00;52110.84;5117270;28;19969;-68
2022/06/24 00:09:28;;;;;;;;;;;;;;;-140.72;100.00;52106.78;5110761;28;19924;-68
2022/06/24 00:12:04;;;;;;;;;;;;;;;-140.72;100.00;52114.91;5111517;28;19916;-69
2022/06/24 00:14:29;;;;;;;;;;;;;;;-140.72;100.00;52090.56;5113414;28;19920;-67
2022/06/24 00:17:02;;;;;;;;;;;;;;;-140.72;100.00;52118.97;5119065;28;19923;-67
2022/06/24 00:19:29;;;;;;;;;;;;;;;-140.72;100.00;52114.91;5117436;28;19947;-68
2022/06/24 00:22:02;;;;;;;;;;;;;;;-140.72;100.00;52133.16;5119790;28;19916;-68
2022/06/24 00:24:28;;;;;;;;;;;;;;;-140.72;100.00;52125.06;5114957;28;19937;-68
2022/06/24 00:26:53;;;;;;;;;;;;;;;-140.72;100.00;52114.91;5116206;28;19951;-68
2022/06/24 00:29:18;;;;;;;;;;;;;;;-140.72;100.00;52139.25;5118596;28;20433;-68
2022/06/24 00:32:00;;;;;;;;;;;;;;;-140.72;100.00;52135.19;5117956;28;19916;-68
2022/06/24 00:34:25;;;;;;;;;;;;;;;-140.72;100.00;52135.19;5111490;28;19923;-68
2022/06/24 00:36:50;;;;;;;;;;;;;;;-140.72;100.00;52145.34;5097023;28;19917;-68
2022/06/24 00:39:16;;;;;;;;;;;;;;;-140.72;100.00;52198.09;5098023;28;19955;-68
2022/06/24 00:41:41;;;;;;;;;;;;;;;-140.72;100.00;52208.25;5097899;28;19917;-67
2022/06/24 00:44:08;;;;;;;;;;;;;;;-140.72;100.00;52204.19;5097551;28;19917;-66
2022/06/24 00:46:39;;;;;;;;;;;;;;;-140.72;100.00;52175.78;5098053;28;19970;-66
2022/06/24 00:49:07;;;;;;;;;;;;;;;-140.72;100.00;52206.22;5099264;28;19958;-65
2022/06/24 00:51:33;;;;;;;;;;;;;;;-140.72;100.00;52165.63;5098177;28;19923;-65
2022/06/24 00:54:05;;;;;;;;;;;;;;;-140.72;100.00;52147.38;5095286;28;20527;-65
2022/06/24 00:56:31;;;;;;;;;;;;;;;-140.72;100.00;52149.41;5082893;28;19970;-66
2022/06/24 00:58:58;;;;;;;;;;;;;;;-140.72;100.00;52167.66;5086159;28;20323;-66
2022/06/24 01:01:34;;;;;;;;;;;;;;;-140.72;100.00;52175.78;5087261;28;19962;-66
2022/06/24 01:04:00;;;;;;;;;;;;;;;-140.72;100.00;52159.56;5079392;28;19921;-66
2022/06/24 01:06:26;;;;;;;;;;;;;;;-140.72;100.00;52175.78;5087180;28;19917;-66
2022/06/24 01:08:52;;;;;;;;;;;;;;;-140.72;100.00;52171.72;5084389;28;19921;-66
2022/06/24 01:11:28;;;;;;;;;;;;;;;-140.72;100.00;52159.56;5080172;28;19950;-66
2022/06/24 01:13:53;;;;;;;;;;;;;;;-140.72;100.00;52196.06;5085858;28;19980;-66
2022/06/24 01:16:20;;;;;;;;;;;;;;;-140.72;100.00;52173.75;5079720;28;19966;-66
2022/06/24 01:18:45;;;;;;;;;;;;;;;-140.72;100.00;52200.13;5083283;28;19946;-66
2022/06/24 01:21:28;;;;;;;;;;;;;;;-140.72;100.00;52179.84;5083747;28;19916;-66
2022/06/24 01:24:01;;;;;;;;;;;;;;;-140.72;100.00;52220.41;5085766;28;19916;-66
2022/06/24 01:26:27;;;;;;;;;;;;;;;-140.72;100.00;52194.03;5080973;28;19927;-67
2022/06/24 01:28:52;;;;;;;;;;;;;;;-140.72;100.00;52216.34;5081788;28;19995;-66
2022/06/24 01:31:17;;;;;;;;;;;;;;;-140.72;100.00;52185.94;5084756;28;19946;-66
2022/06/24 01:33:42;;;;;;;;;;;;;;;-140.72;100.00;52183.91;5086111;28;20324;-66
2022/06/24 01:36:07;;;;;;;;;;;;;;;-140.72;100.00;52163.59;5085270;28;20381;-66
2022/06/24 01:38:40;;;;;;;;;;;;;;;-140.72;100.00;52141.28;5085185;28;19916;-66
2022/06/24 01:41:05;;;;;;;;;;;;;;;-140.72;100.00;52210.28;5085398;28;19917;-65
2022/06/24 01:43:30;;;;;;;;;;;;;;;-140.72;100.00;52189.97;5087496;28;19923;-66
2022/06/24 01:45:56;;;;;;;;;;;;;;;-140.72;100.00;52151.44;5087467;28;20044;-66
2022/06/24 01:48:21;;;;;;;;;;;;;;;-140.72;100.00;52192.00;5086400;28;19916;-66
2022/06/24 01:50:47;;;;;;;;;;;;;;;-140.72;100.00;52198.09;5083190;28;19927;-65
2022/06/24 01:53:12;;;;;;;;;;;;;;;-140.72;100.00;52204.19;5085399;28;19927;-66
2022/06/24 01:55:37;;;;;;;;;;;;;;;-140.72;100.00;52204.19;5084492;28;19916;-66
2022/06/24 01:58:02;;;;;;;;;;;;;;;-140.72;100.00;52196.06;5085112;28;20030;-65
2022/06/24 02:00:28;;;;;;;;;;;;;;;-140.72;100.00;52165.63;5085535;28;19925;-66
2022/06/24 02:02:53;;;;;;;;;;;;;;;-140.72;100.00;52226.50;5085728;28;19943;-66
2022/06/24 02:05:19;;;;;;;;;;;;;;;-140.72;100.00;52208.25;5083418;28;20394;-65
2022/06/24 02:07:44;;;;;;;;;;;;;;;-140.72;100.00;52200.13;5084329;28;20479;-66
2022/06/24 02:15:38;;;;;;;;;;;;;;;-140.72;100.00;52202.16;5085109;28;19926;-66
2022/06/24 02:18:03;;;;;;;;;;;;;;;-140.72;100.00;52202.16;5085128;28;20015;-66
2022/06/24 02:20:28;;;;;;;;;;;;;;;-140.72;100.00;52224.47;5085289;28;19921;-67
2022/06/24 02:22:53;;;;;;;;;;;;;;;-140.72;99.59;52200.13;5083927;28;19916;-66
2022/06/24 02:25:19;;;;;;;;;;;;;;;-140.72;100.00;52212.31;5084978;28;20004;-66
2022/06/24 02:27:45;;;;;;;;;;;;;;;-140.72;99.98;52200.13;5085758;28;19944;-66
2022/06/24 02:30:10;;;;;;;;;;;;;;;-140.72;98.29;52177.81;5085618;28;19916;-66
2022/06/24 02:32:35;;;;;;;;;;;;;;;-140.72;97.10;52240.72;5083973;28;19922;-66
2022/06/24 02:35:01;;;;;;;;;;;;;;;-140.72;96.42;52254.91;5081034;28;19923;-67
2022/06/24 02:37:26;;;;;;;;;;;;;;;-140.72;95.50;52228.53;5076538;28;19920;-66
2022/06/24 02:39:51;;;;;;;;;;;;;;;-140.72;94.47;52198.09;5085465;28;20382;-66
2022/06/24 02:42:16;;;;;;;;;;;;;;;-140.72;93.10;52202.16;5080096;28;19920;-66
2022/06/24 02:44:41;;;;;;;;;;;;;;;-140.72;92.81;52218.38;5116851;28;19923;-66
2022/06/24 02:47:07;;;;;;;;;;;;;;;-140.72;91.43;52238.69;5083056;28;19916;-66
2022/06/24 02:49:32;;;;;;;;;;;;;;;-140.72;89.84;52208.25;5084944;28;19939;-66
2022/06/24 02:51:57;;;;;;;;;;;;;;;-140.72;89.53;52275.19;5078675;28;19917;-66
2022/06/24 02:54:23;;;;;;;;;;;;;;;-140.72;89.11;52236.66;5081972;28;19936;-66
2022/06/24 02:56:48;;;;;;;;;;;;;;;-140.72;88.82;52192.00;5079562;28;19947;-66
2022/06/24 02:59:14;;;;;;;;;;;;;;;-140.72;88.66;52220.41;5081271;28;19916;-66
2022/06/24 03:01:39;;;;;;;;;;;;;;;-140.72;88.64;52206.22;5079363;28;19927;-66
2022/06/24 03:04:04;;;;;;;;;;;;;;;-140.72;88.06;52238.69;5084453;28;19979;-66
2022/06/24 03:06:30;;;;;;;;;;;;;;;-140.72;87.31;52224.47;5083300;28;19924;-66
2022/06/24 03:08:55;;;;;;;;;;;;;;;-140.72;86.68;52256.94;5079277;28;19917;-66
2022/06/24 03:11:20;;;;;;;;;;;;;;;-140.72;86.41;52189.97;5084478;28;19950;-65
2022/06/24 03:13:45;;;;;;;;;;;;;;;-140.72;86.74;52194.03;5080709;28;19974;-66
2022/06/24 03:16:11;;;;;;;;;;;;;;;-140.72;86.40;52222.44;5084137;28;19921;-66
2022/06/24 03:18:36;;;;;;;;;;;;;;;-140.72;85.58;52192.00;5078652;28;19952;-66
2022/06/24 03:21:01;;;;;;;;;;;;;;;-140.72;85.11;52250.84;5084359;28;19923;-66
2022/06/24 03:23:26;;;;;;;;;;;;;;;-140.72;84.58;52208.25;5084085;28;19969;-66
2022/06/24 03:25:51;;;;;;;;;;;;;;;-140.72;84.08;52248.81;5083994;28;20332;-66
2022/06/24 03:28:17;;;;;;;;;;;;;;;-140.72;83.80;52232.59;5083852;28;19920;-66
2022/06/24 03:30:42;;;;;;;;;;;;;;;-140.72;83.88;52196.06;5081520;28;19923;-70
2022/06/24 03:33:07;;;;;;;;;;;;;;;-140.72;83.78;52224.47;5083230;28;19916;-66
2022/06/24 03:35:32;;;;;;;;;;;;;;;-140.72;83.39;52261.00;5083322;28;19917;-66
2022/06/24 03:37:58;;;;;;;;;;;;;;;-140.72;83.98;52224.47;5082857;28;19946;-67
2022/06/24 03:40:23;;;;;;;;;;;;;;;-140.72;84.43;52248.81;5077264;28;19927;-65
2022/06/24 03:42:48;;;;;;;;;;;;;;;-140.72;84.24;52216.34;5075168;28;19995;-66
2022/06/24 03:45:13;;;;;;;;;;;;;;;-140.72;84.60;52226.50;5071568;28;20510;-66
2022/06/24 03:47:39;;;;;;;;;;;;;;;-140.72;84.85;52232.59;5079471;28;19930;-66
2022/06/24 03:50:04;;;;;;;;;;;;;;;-140.72;84.66;52224.47;5080251;28;20420;-66
2022/06/24 03:52:29;;;;;;;;;;;;;;;-140.72;84.38;52189.97;5081676;28;19916;-67
2022/06/24 03:54:55;;;;;;;;;;;;;;;-140.72;84.16;52218.38;5081446;28;19925;-66
2022/06/24 03:57:20;;;;;;;;;;;;;;;-140.72;83.91;52222.44;5077068;28;19931;-66
2022/06/24 03:59:45;;;;;;;;;;;;;;;-140.72;83.58;52187.97;5080651;28;19946;-66
2022/06/24 04:02:10;;;;;;;;;;;;;;;-140.72;83.42;52228.53;5077065;28;19916;-66
2022/06/24 04:04:36;;;;;;;;;;;;;;;-140.72;83.24;52220.41;5079518;28;19959;-66
2022/06/24 04:07:01;;;;;;;;;;;;;;;-140.72;83.75;52228.53;5080571;28;19917;-66
2022/06/24 04:09:26;;;;;;;;;;;;;;;-140.72;84.16;52244.78;5077442;28;19979;-69
2022/06/24 04:11:51;;;;;;;;;;;;;;;-140.72;84.46;52212.31;5073794;28;20396;-68
2022/06/24 04:15:13;;;;;;;;;;;;;;;-140.72;84.51;52216.34;5077954;28;19933;-67
2022/06/24 04:17:03;;;;;;;;;;;;;;;-140.72;84.90;52230.56;5073870;28;20062;-68
2022/06/24 04:19:28;;;;;;;;;;;;;;;-140.72;85.11;52212.31;5107276;28;20365;-67
2022/06/24 04:21:53;;;;;;;;;;;;;;;-140.72;85.80;52261.00;5069520;28;19928;-68
2022/06/24 04:24:19;;;;;;;;;;;;;;;-140.72;86.37;52261.00;5075750;28;20504;-70
2022/06/24 04:26:44;;;;;;;;;;;;;;;-140.72;87.53;52248.81;5076484;28;19974;-69
2022/06/24 04:29:09;;;;;;;;;;;;;;;-140.72;87.94;52234.63;5078630;28;19928;-67
2022/06/24 04:31:34;;;;;;;;;;;;;;;-140.72;89.47;52204.19;5085879;28;19916;-69
2022/06/24 04:33:59;;;;;;;;;;;;;;;-140.72;90.33;52216.34;5082108;28;19916;-71
2022/06/24 04:36:24;;;;;;;;;;;;;;;-140.72;91.57;52252.88;5083160;28;20031;-70
2022/06/24 04:38:50;;;;;;;;;;;;;;;-140.72;91.92;52177.81;5080690;28;19916;-70
2022/06/24 04:41:18;;;;;;;;;;;;;;;-140.72;92.01;52198.09;5080082;28;19924;-73
2022/06/24 04:43:44;;;;;;;;;;;;;;;-140.72;93.05;52210.28;5073143;28;19924;-72
2022/06/24 04:46:12;;;;;;;;;;;;;;;-140.72;94.83;52228.53;5076240;28;19920;-70
2022/06/24 04:48:37;;;;;;;;;;;;;;;-140.72;95.16;52232.59;5063914;28;19917;-68
2022/06/24 04:51:03;;;;;;;;;;;;;;;-140.72;95.00;52230.56;5075412;28;20015;-68
2022/06/24 04:53:29;;;;;;;;;;;;;;;-140.72;95.03;52263.03;5068974;28;19924;-72
2022/06/24 04:55:54;;;;;;;;;;;;;;;-140.72;94.70;52236.66;5078816;28;19967;-67
2022/06/24 04:58:20;;;;;;;;;;;;;;;-140.72;95.26;52212.31;5074125;28;19916;-68
2022/06/24 05:00:45;;;;;;;;;;;;;;;-140.72;95.38;52240.72;5077711;28;19920;-71
2022/06/24 05:03:10;;;;;;;;;;;;;;;-140.72;95.49;52216.34;5063253;28;19920;-71
2022/06/24 05:05:35;;;;;;;;;;;;;;;-140.72;95.79;52230.56;5075533;28;20389;-72
2022/06/24 05:08:01;;;;;;;;;;;;;;;-140.72;96.66;52185.94;5062648;28;19916;-71
2022/06/24 05:10:26;;;;;;;;;;;;;;;-140.72;98.15;52228.53;5072343;28;19927;-65
2022/06/24 05:12:51;;;;;;;;;;;;;;;-140.72;99.74;52210.28;5085716;28;19916;-66
2022/06/24 05:15:16;;;;;;;;;;;;;;;-140.72;100.00;52204.19;5086105;28;19924;-66
2022/06/24 05:17:42;;;;;;;;;;;;;;;-140.72;100.00;52232.59;5082346;28;19963;-66
2022/06/24 05:20:07;;;;;;;;;;;;;;;-140.72;100.00;52218.38;5076909;28;19920;-66
2022/06/24 05:22:33;;;;;;;;;;;;;;;-140.72;100.00;52228.53;5085564;28;19924;-66
2022/06/24 05:24:58;;;;;;;;;;;;;;;-140.72;100.00;52208.25;5086854;28;19970;-66
2022/06/24 05:27:23;;;;;;;;;;;;;;;-140.72;100.00;52228.53;5084609;28;19939;-66
2022/06/24 05:29:49;;;;;;;;;;;;;;;-140.72;100.00;52244.78;5086692;28;19920;-66
2022/06/24 05:32:14;;;;;;;;;;;;;;;-140.72;100.00;52218.38;5070493;28;19970;-67
2022/06/24 05:34:39;;;;;;;;;;;;;;;-140.72;100.00;52226.50;5077734;28;19983;-66
2022/06/24 05:37:04;;;;;;;;;;;;;;;-140.72;100.00;52222.44;5082729;28;19917;-66
2022/06/24 05:39:30;;;;;;;;;;;;;;;-140.72;100.00;52198.09;5077774;28;19926;-70
2022/06/24 05:41:56;;;;;;;;;;;;;;;-140.72;100.00;52212.31;5073538;28;19924;-68
2022/06/24 05:44:21;;;;;;;;;;;;;;;-140.72;100.00;52234.63;5079223;28;19956;-69
2022/06/24 05:46:46;;;;;;;;;;;;;;;-140.72;100.00;52212.31;5085363;28;19983;-70
2022/06/24 05:49:12;;;;;;;;;;;;;;;-140.72;100.00;52273.19;5086080;28;19923;-65
2022/06/24 05:51:37;;;;;;;;;;;;;;;-140.72;100.00;52220.41;5087528;28;20331;-66
2022/06/24 05:56:46;;;;;;;;;;;;;;;-140.72;100.00;52204.19;5086517;28;19940;-66
2022/06/24 05:59:12;;;;;;;;;;;;;;;-140.72;100.00;52218.38;5086422;28;20232;-65
2022/06/24 06:01:37;;;;;;;;;;;;;;;-140.72;100.00;52250.84;5074326;28;19923;-66
2022/06/24 06:04:02;;;;;;;;;;;;;;;-140.72;100.00;52202.16;5087713;28;19916;-66
2022/06/24 06:06:28;;;;;;;;;;;;;;;-140.72;100.00;52230.56;5070445;28;19917;-66
2022/06/24 06:08:53;;;;;;;;;;;;;;;-140.72;100.00;52230.56;5068851;28;19948;-66
2022/06/24 06:11:19;;;;;;;;;;;;;;;-140.72;100.00;52236.66;5073579;28;19969;-66
2022/06/24 06:13:45;;;;;;;;;;;;;;;-140.72;100.00;52210.28;5073740;28;19917;-66
2022/06/24 06:16:11;;;;;;;;;;;;;;;-140.72;100.00;52183.91;5074465;28;19948;-66
2022/06/24 06:18:37;;;;;;;;;;;;;;;-140.72;100.00;52226.50;5087112;28;19929;-66
2022/06/24 06:21:03;;;;;;;;;;;;;;;-140.72;100.00;52228.53;5074311;28;20010;-66
2022/06/24 06:23:28;;;;;;;;;;;;;;;-140.72;100.00;52204.19;5086798;28;19938;-67
2022/06/24 06:25:54;;;;;;;;;;;;;;;-140.72;100.00;52248.81;5087236;28;19916;-66
2022/06/24 06:28:19;;;;;;;;;;;;;;;-140.72;100.00;52228.53;5075017;28;19920;-66
2022/06/24 06:30:44;;;;;;;;;;;;;;;-140.72;100.00;52224.47;5074302;28;19916;-67
2022/06/24 06:33:10;;;;;;;;;;;;;;;-140.72;100.00;52250.84;5088310;28;19916;-66
2022/06/24 06:35:35;;;;;;;;;;;;;;;-140.72;100.00;52240.72;5075719;28;19923;-66
2022/06/24 06:38:00;;;;;;;;;;;;;;;-140.72;100.00;52230.56;5074485;28;19917;-67
2022/06/24 06:40:26;;;;;;;;;;;;;;;-140.72;100.00;52240.72;5083020;28;19921;-66
2022/06/24 06:42:55;;;;;;;;;;;;;;;-140.72;100.00;52246.78;5081487;28;19956;-67
2022/06/24 06:45:20;;;;;;;;;;;;;;;-140.72;100.00;52244.78;5084508;28;19924;-66
2022/06/24 06:47:45;;;;;;;;;;;;;;;-140.72;100.00;52220.41;5078002;28;19916;-67
2022/06/24 06:50:10;;;;;;;;;;;;;;;-140.72;100.00;52220.41;5067783;28;19937;-66
2022/06/24 06:52:35;;;;;;;;;;;;;;;-140.72;100.00;52212.31;5077575;28;19923;-67
2022/06/24 06:55:02;;;;;;;;;;;;;;;-140.72;100.00;52236.66;5087518;28;19921;-67
2022/06/24 06:57:27;;;;;;;;;;;;;;;-140.72;100.00;52216.34;5087771;28;19973;-66
2022/06/24 06:59:52;;;;;;;;;;;;;;;-140.72;100.00;52187.97;5082960;28;19916;-66
2022/06/24 07:02:17;;;;;;;;;;;;;;;-140.72;100.00;52279.25;5079082;28;20415;-67
2022/06/24 07:04:43;;;;;;;;;;;;;;;-140.72;100.00;52232.59;5088400;28;19963;-66
2022/06/24 07:07:08;;;;;;;;;;;;;;;-140.72;100.00;52222.44;5077368;28;20315;-66
2022/06/24 07:09:33;;;;;;;;;;;;;;;-140.72;100.00;52230.56;5084624;28;19944;-66
2022/06/24 07:11:58;;;;;;;;;;;;;;;-140.72;100.00;52220.41;5087993;28;20369;-66
2022/06/24 07:14:24;;;;;;;;;;;;;;;-140.72;100.00;52216.34;5087486;28;19923;-66
2022/06/24 07:16:49;;;;;;;;;;;;;;;-140.72;100.00;52271.16;5086722;28;19944;-66
2022/06/24 07:19:14;;;;;;;;;;;;;;;-140.72;100.00;52220.41;5087149;28;19916;-66
2022/06/24 07:21:39;;;;;;;;;;;;;;;-140.72;100.00;52204.19;5087181;28;19984;-66
2022/06/24 07:24:05;;;;;;;;;;;;;;;-140.72;100.00;52230.56;5086977;28;19952;-66
2022/06/24 07:26:30;;;;;;;;;;;;;;;-140.72;100.00;52208.25;5077349;28;19928;-66
2022/06/24 07:28:55;;;;;;;;;;;;;;;-140.72;100.00;52202.16;5085734;28;19916;-66
2022/06/24 07:31:20;;;;;;;;;;;;;;;-140.72;100.00;52238.69;5085911;28;19975;-66
2022/06/24 07:33:46;;;;;;;;;;;;;;;-140.72;100.00;52220.41;5075210;28;19916;-67
2022/06/24 07:36:11;;;;;;;;;;;;;;;-140.72;100.00;52204.19;5088295;28;19995;-67
2022/06/24 07:38:37;;;;;;;;;;;;;;;-140.72;100.00;52228.53;5075004;28;19951;-66
2022/06/24 07:41:02;;;;;;;;;;;;;;;-140.72;100.00;52230.56;5088919;28;19963;-67
2022/06/24 07:43:28;;;;;;;;;;;;;;;-140.72;100.00;52212.31;5087578;28;19916;-66
2022/06/24 07:45:54;;;;;;;;;;;;;;;-140.72;100.00;52196.06;5078520;28;19917;-66
2022/06/24 07:48:19;;;;;;;;;;;;;;;-140.72;100.00;52224.47;5070265;28;20306;-67
2022/06/24 07:50:44;;;;;;;;;;;;;;;-140.72;100.00;52212.31;5079029;28;20063;-66
2022/06/24 07:53:10;;;;;;;;;;;;;;;-140.72;100.00;52240.72;5079176;28;19921;-67
2022/06/24 07:58:19;;;;;;;;;;;;;;;-140.72;100.00;52218.38;5066423;28;20031;-66
2022/06/24 08:00:44;;;;;;;;;;;;;;;-140.72;100.00;52185.94;5084318;28;19925;-66
2022/06/24 08:03:10;;;;;;;;;;;;;;;-140.72;100.00;52194.03;5085083;28;19916;-65
2022/06/24 08:05:35;;;;;;;;;;;;;;;-140.72;100.00;52208.25;5077188;28;19924;-66
2022/06/24 08:08:00;;;;;;;;;;;;;;;-140.72;100.00;52183.91;5087625;28;19923;-67
2022/06/24 08:10:25;;;;;;;;;;;;;;;-140.72;100.00;52175.78;5088098;28;19985;-66
2022/06/24 08:12:51;;;;;;;;;;;;;;;-140.72;100.00;52248.81;5089330;28;19963;-66
2022/06/24 08:15:17;;;;;;;;;;;;;;;-140.72;100.00;52196.06;5089863;28;19927;-66
2022/06/24 08:17:42;;;;;;;;;;;;;;;-140.72;100.00;52214.34;5074850;28;20387;-66
2022/06/24 08:20:08;;;;;;;;;;;;;;;-140.72;100.00;52226.50;5087861;28;19973;-65
2022/06/24 08:22:33;;;;;;;;;;;;;;;-140.72;100.00;52200.13;5087648;28;20007;-66
2022/06/24 08:24:58;;;;;;;;;;;;;;;-140.72;100.00;52167.66;5088842;28;19923;-65
2022/06/24 08:27:24;;;;;;;;;;;;;;;-140.72;100.00;52163.59;5071504;28;19917;-65
2022/06/24 08:29:49;;;;;;;;;;;;;;;-140.72;100.00;52169.69;5080969;28;19991;-67
2022/06/24 08:32:14;;;;;;;;;;;;;;;-140.72;100.00;52177.81;5087855;28;19917;-66
2022/06/24 08:34:39;;;;;;;;;;;;;;;-140.72;100.00;52151.44;5077312;28;19921;-65
2022/06/24 08:37:04;;;;;;;;;;;;;;;-140.72;100.00;52175.78;5069877;28;20298;-65
2022/06/24 08:39:30;;;;;;;;;;;;;;;-140.72;100.00;52210.28;5081993;28;19923;-67
2022/06/24 08:41:56;;;;;;;;;;;;;;;-140.72;100.00;52175.78;5089844;28;19981;-67
2022/06/24 08:44:22;;;;;;;;;;;;;;;-140.72;100.00;52171.72;5087672;28;19983;-67
2022/06/24 08:46:47;;;;;;;;;;;;;;;-140.72;100.00;52161.56;5084840;28;19923;-67
2022/06/24 08:49:12;;;;;;;;;;;;;;;-140.72;100.00;52198.09;5078155;28;19939;-67
2022/06/24 08:51:40;;;;;;;;;;;;;;;-140.72;100.00;52141.28;5089860;28;19923;-68
2022/06/24 08:54:07;;;;;;;;;;;;;;;-140.72;100.00;52151.44;5090069;28;19920;-67
2022/06/24 08:56:32;;;;;;;;;;;;;;;-140.72;100.00;52139.25;5089182;28;20366;-67
2022/06/24 08:58:58;;;;;;;;;;;;;;;-140.72;100.00;52135.19;5080333;28;19916;-67
2022/06/24 09:01:23;;;;;;;;;;;;;;;-140.72;100.00;52159.56;5069978;28;20022;-67
2022/06/24 09:03:49;;;;;;;;;;;;;;;-140.72;100.00;52145.34;5070391;28;19921;-67
2022/06/24 09:06:15;;;;;;;;;;;;;;;-140.72;100.00;52169.69;5070549;28;19916;-65
2022/06/24 09:08:44;;;;;;;;;;;;;;;-140.72;100.00;52147.38;5070418;28;19952;-67
2022/06/24 09:11:10;;;;;;;;;;;;;;;-140.72;100.00;52135.19;5073039;28;19921;-67
2022/06/24 09:13:42;;;;;;;;;;;;;;;-140.72;100.00;52187.97;5089385;28;19916;-67
2022/06/24 09:16:08;;;;;;;;;;;;;;;-140.72;100.00;52129.13;5088284;28;19916;-67
2022/06/24 09:18:33;;;;;;;;;;;;;;;-140.72;100.00;52104.75;5076176;28;19951;-67
2022/06/24 09:20:59;;;;;;;;;;;;;;;-140.72;100.00;52094.63;5084194;28;20373;-67
2022/06/24 09:23:24;;;;;;;;;;;;;;;-140.72;100.00;52090.56;5088779;28;19928;-67
2022/06/24 09:25:51;;;;;;;;;;;;;;;-140.72;100.00;52100.72;5087871;28;19917;-67
2022/06/24 09:28:20;;;;;;;;;;;;;;;-140.72;100.00;52135.19;5077297;28;19924;-67
2022/06/24 09:30:45;;;;;;;;;;;;;;;-140.72;100.00;52102.75;5079994;28;19920;-67
2022/06/24 09:33:14;;;;;;;;;;;;;;;-140.72;100.00;52082.44;5078202;28;19946;-68
2022/06/24 09:35:39;;;;;;;;;;;;;;;-140.72;100.00;52110.84;5073461;28;19957;-66
2022/06/24 09:38:04;;;;;;;;;;;;;;;-140.72;100.00;52094.63;5084966;28;19916;-66
2022/06/24 09:40:31;;;;;;;;;;;;;;;-140.72;100.00;52047.97;5086032;28;19920;-66
2022/06/24 09:43:00;;;;;;;;;;;;;;;-140.72;100.00;52070.28;5084138;28;19923;-66
2022/06/24 09:45:27;;;;;;;;;;;;;;;-140.72;100.00;52070.28;5082890;28;19923;-68
2022/06/24 09:47:53;;;;;;;;;;;;;;;-140.72;100.00;52098.69;5074340;28;19916;-68
2022/06/24 09:50:19;;;;;;;;;;;;;;;-140.72;100.00;52086.50;5116296;28;19948;-66
2022/06/24 09:52:44;;;;;;;;;;;;;;;-140.72;100.00;52127.09;5085636;28;19967;-66
2022/06/24 09:55:10;;;;;;;;;;;;;;;-140.72;100.00;52068.25;5085070;28;19928;-66
2022/06/24 09:57:36;;;;;;;;;;;;;;;-140.72;100.00;51991.16;5084903;28;19917;-66
2022/06/24 10:02:49;;;;;;;;;;;;;;;-140.72;100.00;52005.34;5067737;28;19939;-65
2022/06/24 10:05:17;;;;;;;;;;;;;;;-140.72;100.00;52058.09;5084686;28;19916;-66
2022/06/24 10:07:45;;;;;;;;;;;;;;;-140.72;100.00;52094.63;5083009;28;19916;-67
2022/06/24 10:10:11;;;;;;;;;;;;;;;-140.72;100.00;52084.47;5075212;28;19917;-66
2022/06/24 10:12:44;;;;;;;;;;;;;;;-140.72;100.00;52118.97;5070039;28;20297;-66
2022/06/24 10:15:09;;;;;;;;;;;;;;;-140.72;100.00;52123.03;5085530;28;19983;-66
2022/06/24 10:17:35;;;;;;;;;;;;;;;-140.72;100.00;52098.69;5082092;28;19916;-66
2022/06/24 10:20:01;;;;;;;;;;;;;;;-140.72;100.00;52056.06;5066847;28;19924;-66
2022/06/24 10:22:36;;;;;;;;;;;;;;;-140.72;100.00;52049.97;5081115;28;19925;-66
2022/06/24 10:25:02;;;;;;;;;;;;;;;-140.72;100.00;52082.44;5067144;28;20293;-66
2022/06/24 10:27:46;;;;;;;;;;;;;;;-140.72;100.00;52094.63;5068737;28;19957;-66
2022/06/24 10:30:11;;;;;;;;;;;;;;;-140.72;100.00;52116.94;5068836;28;19925;-66
2022/06/24 10:32:36;;;;;;;;;;;;;;;-140.72;100.00;52131.16;5067570;28;19988;-68
2022/06/24 10:35:05;;;;;;;;;;;;;;;-140.72;100.00;52171.72;5070479;28;19916;-68
2022/06/24 10:37:30;;;;;;;;;;;;;;;-140.72;100.00;52183.91;5077694;28;19939;-67
2022/06/24 10:39:56;;;;;;;;;;;;;;;-140.72;100.00;52194.03;5086681;28;19917;-67
2022/06/24 10:42:22;;;;;;;;;;;;;;;-140.72;100.00;52173.75;5078404;28;19984;-67
2022/06/24 10:44:57;;;;;;;;;;;;;;;-140.72;100.00;52179.84;5079576;28;19917;-67
2022/06/24 10:47:26;;;;;;;;;;;;;;;-140.72;100.00;52187.97;5072204;28;19923;-68
2022/06/24 10:49:51;;;;;;;;;;;;;;;-140.72;100.00;52194.03;5080570;28;20007;-68
2022/06/24 10:52:31;;;;;;;;;;;;;;;-140.72;100.00;52200.13;5081202;28;20341;-67
2022/06/24 10:55:15;;;;;;;;;;;;;;;-140.72;100.00;52161.56;5088079;28;19920;-68
2022/06/24 10:57:40;;;;;;;;;;;;;;;-140.72;100.00;52165.63;5090469;28;20401;-69
2022/06/24 11:00:13;;;;;;;;;;;;;;;-140.72;100.00;52187.97;5091723;28;19916;-67
2022/06/24 11:02:38;;;;;;;;;;;;;;;-140.72;100.00;52187.97;5077752;28;19927;-66
2022/06/24 11:05:07;;;;;;;;;;;;;;;-140.72;100.00;52175.78;5090695;28;19917;-68
2022/06/24 11:07:32;;;;;;;;;;;;;;;-140.72;100.00;52208.25;5085823;28;19920;-67
2022/06/24 11:09:58;;;;;;;;;;;;;;;-140.72;100.00;52210.28;5080861;28;20023;-66
2022/06/24 11:12:30;;;;;;;;;;;;;;;-140.72;100.00;52194.03;5085997;28;19920;-66
2022/06/24 11:14:55;;;;;;;;;;;;;;;-140.72;100.00;52234.63;5085360;28;19916;-68
2022/06/24 11:17:24;;;;;;;;;;;;;;;-140.72;100.00;52192.00;5085669;28;19963;-68
2022/06/24 11:19:50;;;;;;;;;;;;;;;-140.72;100.00;52194.03;5086653;28;19921;-68
2022/06/24 11:22:15;;;;;;;;;;;;;;;-140.72;100.00;52224.47;5085564;28;19924;-67
2022/06/24 11:24:41;;;;;;;;;;;;;;;-140.72;100.00;52228.53;5085060;28;20280;-66
2022/06/24 11:27:07;;;;;;;;;;;;;;;-140.72;100.00;52196.06;5082613;28;19999;-65
2022/06/24 11:29:48;;;;;;;;;;;;;;;-140.72;100.00;52234.63;5086783;28;19916;-66
2022/06/24 11:32:13;;;;;;;;;;;;;;;-140.72;100.00;52171.72;5088155;28;20381;-68
2022/06/24 11:34:38;;;;;;;;;;;;;;;-140.72;100.00;52179.84;5086039;28;19924;-68
2022/06/24 11:37:04;;;;;;;;;;;;;;;-140.72;100.00;52153.47;5088748;28;19979;-68
2022/06/24 11:39:32;;;;;;;;;;;;;;;-140.72;100.00;52088.53;5080784;28;19917;-67
2022/06/24 11:41:57;;;;;;;;;;;;;;;-140.72;100.00;52043.91;5078592;28;19917;-66
2022/06/24 11:44:41;;;;;;;;;;;;;;;-140.72;100.00;52009.41;5083180;28;20090;-66
2022/06/24 11:47:07;;;;;;;;;;;;;;;-140.72;100.00;52007.38;5081439;28;19928;-69
2022/06/24 11:49:33;;;;;;;;;;;;;;;-140.72;100.00;52027.66;5084978;28;19916;-68
2022/06/24 11:51:58;;;;;;;;;;;;;;;-140.72;100.00;51952.59;5084425;28;19943;-69
2022/06/24 11:54:27;;;;;;;;;;;;;;;-140.72;100.00;51891.72;5084948;28;19921;-66
2022/06/24 11:56:53;;;;;;;;;;;;;;;-140.72;100.00;51810.56;5084099;28;19920;-66
2022/06/24 11:59:21;;;;;;;;;;;;;;;-140.72;100.00;51841.00;5085125;28;20380;-69
2022/06/24 12:01:47;;;;;;;;;;;;;;;-140.72;100.00;51719.28;5071017;28;19923;-67
2022/06/24 12:04:12;;;;;;;;;;;;;;;-140.72;100.00;51889.69;5084657;28;19917;-66
2022/06/24 12:06:39;;;;;;;;;;;;;;;-140.72;100.00;51981.00;5078224;28;19924;-68
2022/06/24 12:09:04;;;;;;;;;;;;;;;-140.72;100.00;51847.09;5077417;28;19938;-67
2022/06/24 12:11:35;;;;;;;;;;;;;;;-140.72;100.00;51934.34;5115428;28;19979;-66
2022/06/24 12:14:04;;;;;;;;;;;;;;;-140.72;100.00;51976.94;5081724;28;19931;-66
2022/06/24 12:16:48;;;;;;;;;;;;;;;-140.72;100.00;51920.13;5078509;28;19924;-67
2022/06/24 12:19:13;;;;;;;;;;;;;;;-140.72;100.00;52005.34;5062839;28;19916;-66
2022/06/24 12:21:38;;;;;;;;;;;;;;;-140.72;100.00;52023.59;5066228;28;19921;-66
2022/06/24 12:24:18;;;;;;;;;;;;;;;-140.72;100.00;51981.00;5076852;28;19916;-68
2022/06/24 12:26:43;;;;;;;;;;;;;;;-140.72;100.00;51879.56;5071279;28;19920;-66
2022/06/24 12:29:08;;;;;;;;;;;;;;;-140.72;100.00;51887.66;5071213;28;19991;-66
2022/06/24 12:31:35;;;;;;;;;;;;;;;-140.72;100.00;51810.56;5070105;28;20333;-66